sensor_id;sensor_type;location;lat;lon;timestamp;P1;durP1;ratioP1;P2;durP2;ratioP2
6467;SDS011;3267;48.794;9.928;2023-12-07T05:03:49;3.87;;;3.40;;
6467;SDS011;3267;48.794;9.928;2023-12-07T05:06:15;4.50;;;3.70;;
6467;SDS011;3267;48.794;9.928;2023-12-07T05:08:41;3.33;;;3.03;;
6467;SDS011;3267;48.794;9.928;2023-12-07T05:11:06;3.80;;;3.37;;
6467;SDS011;3267;48.794;9.928;2023-12-07T05:13:32;4.00;;;3.43;;
6467;SDS011;3267;48.794;9.928;2023-12-07T05:15:59;5.13;;;3.50;;
6467;SDS011;3267;48.794;9.928;2023-12-07T05:18:25;4.30;;;3.70;;
6467;SDS011;3267;48.794;9.928;2023-12-07T05:20:51;5.07;;;3.43;;
6467;SDS011;3267;48.794;9.928;2023-12-07T05:23:16;5.00;;;3.50;;
6467;SDS011;3267;48.794;9.928;2023-12-07T05:25:42;5.60;;;3.80;;
6467;SDS011;3267;48.794;9.928;2023-12-07T05:28:08;4.47;;;3.50;;
6467;SDS011;3267;48.794;9.928;2023-12-07T05:30:35;5.50;;;4.00;;
6467;SDS011;3267;48.794;9.928;2023-12-07T05:33:01;4.83;;;4.10;;
6467;SDS011;3267;48.794;9.928;2023-12-07T05:35:27;5.53;;;4.40;;
6467;SDS011;3267;48.794;9.928;2023-12-07T05:37:53;6.77;;;3.63;;
6467;SDS011;3267;48.794;9.928;2023-12-07T05:40:19;5.27;;;3.87;;
6467;SDS011;3267;48.794;9.928;2023-12-07T05:42:45;4.80;;;4.30;;
6467;SDS011;3267;48.794;9.928;2023-12-07T05:45:14;3.83;;;3.53;;
6467;SDS011;3267;48.794;9.928;2023-12-07T05:47:41;5.70;;;3.97;;
6467;SDS011;3267;48.794;9.928;2023-12-07T05:50:07;4.97;;;4.43;;
6467;SDS011;3267;48.794;9.928;2023-12-07T05:52:33;5.53;;;4.13;;
6467;SDS011;3267;48.794;9.928;2023-12-07T05:54:59;4.90;;;4.13;;
6467;SDS011;3267;48.794;9.928;2023-12-07T05:57:24;5.10;;;3.53;;
6467;SDS011;3267;48.794;9.928;2023-12-07T05:59:50;8.63;;;3.97;;
6467;SDS011;3267;48.794;9.928;2023-12-07T06:02:16;3.83;;;3.50;;
6467;SDS011;3267;48.794;9.928;2023-12-07T06:04:42;4.70;;;3.50;;
6467;SDS011;3267;48.794;9.928;2023-12-07T06:07:08;3.97;;;3.40;;
6467;SDS011;3267;48.794;9.928;2023-12-07T06:09:34;3.60;;;3.30;;
6467;SDS011;3267;48.794;9.928;2023-12-07T06:12:00;5.33;;;3.20;;
6467;SDS011;3267;48.794;9.928;2023-12-07T06:14:26;4.90;;;3.57;;
6467;SDS011;3267;48.794;9.928;2023-12-07T06:16:52;5.40;;;3.20;;
6467;SDS011;3267;48.794;9.928;2023-12-07T06:19:18;3.60;;;3.30;;
6467;SDS011;3267;48.794;9.928;2023-12-07T06:21:43;5.83;;;3.00;;
6467;SDS011;3267;48.794;9.928;2023-12-07T06:24:09;5.97;;;3.30;;
6467;SDS011;3267;48.794;9.928;2023-12-07T06:26:35;3.53;;;3.00;;
6467;SDS011;3267;48.794;9.928;2023-12-07T06:29:01;3.30;;;3.00;;
6467;SDS011;3267;48.794;9.928;2023-12-07T06:31:27;2.97;;;2.50;;
6467;SDS011;3267;48.794;9.928;2023-12-07T06:33:53;4.07;;;3.00;;
6467;SDS011;3267;48.794;9.928;2023-12-07T06:36:23;3.33;;;2.93;;
6467;SDS011;3267;48.794;9.928;2023-12-07T06:38:49;3.17;;;2.90;;
6467;SDS011;3267;48.794;9.928;2023-12-07T06:41:15;3.43;;;2.90;;
6467;SDS011;3267;48.794;9.928;2023-12-07T06:43:41;4.17;;;2.70;;
6467;SDS011;3267;48.794;9.928;2023-12-07T06:46:09;3.73;;;3.00;;
6467;SDS011;3267;48.794;9.928;2023-12-07T06:48:38;4.97;;;3.07;;
6467;SDS011;3267;48.794;9.928;2023-12-07T06:51:04;3.63;;;2.87;;
6467;SDS011;3267;48.794;9.928;2023-12-07T06:53:30;3.80;;;3.10;;
6467;SDS011;3267;48.794;9.928;2023-12-07T06:55:58;3.37;;;2.40;;
6467;SDS011;3267;48.794;9.928;2023-12-07T06:58:24;5.47;;;3.50;;
6467;SDS011;3267;48.794;9.928;2023-12-07T07:00:50;7.50;;;3.17;;
6467;SDS011;3267;48.794;9.928;2023-12-07T07:03:15;4.87;;;3.40;;
6467;SDS011;3267;48.794;9.928;2023-12-07T07:05:42;7.27;;;3.33;;
6467;SDS011;3267;48.794;9.928;2023-12-07T07:08:07;3.30;;;2.80;;
6467;SDS011;3267;48.794;9.928;2023-12-07T07:10:33;4.80;;;3.47;;
6467;SDS011;3267;48.794;9.928;2023-12-07T07:13:00;6.00;;;3.13;;
6467;SDS011;3267;48.794;9.928;2023-12-07T07:15:29;6.37;;;3.73;;
6467;SDS011;3267;48.794;9.928;2023-12-07T07:17:55;6.07;;;4.00;;
6467;SDS011;3267;48.794;9.928;2023-12-07T07:20:21;8.80;;;4.93;;
6467;SDS011;3267;48.794;9.928;2023-12-07T07:22:47;6.43;;;4.53;;
6467;SDS011;3267;48.794;9.928;2023-12-07T07:25:13;6.53;;;5.37;;
6467;SDS011;3267;48.794;9.928;2023-12-07T07:27:44;8.30;;;5.70;;
6467;SDS011;3267;48.794;9.928;2023-12-07T07:30:11;8.77;;;5.57;;
6467;SDS011;3267;48.794;9.928;2023-12-07T07:32:37;8.67;;;6.13;;
6467;SDS011;3267;48.794;9.928;2023-12-07T07:35:03;9.53;;;7.03;;
6467;SDS011;3267;48.794;9.928;2023-12-07T07:37:29;12.63;;;6.70;;
6467;SDS011;3267;48.794;9.928;2023-12-07T07:39:55;11.17;;;6.50;;
6467;SDS011;3267;48.794;9.928;2023-12-07T07:42:21;9.67;;;6.47;;
6467;SDS011;3267;48.794;9.928;2023-12-07T07:44:47;7.13;;;5.80;;
6467;SDS011;3267;48.794;9.928;2023-12-07T07:47:14;7.43;;;4.97;;
6467;SDS011;3267;48.794;9.928;2023-12-07T07:49:39;7.50;;;5.03;;
6467;SDS011;3267;48.794;9.928;2023-12-07T07:52:05;5.70;;;5.03;;
6467;SDS011;3267;48.794;9.928;2023-12-07T07:54:31;8.90;;;5.40;;
6467;SDS011;3267;48.794;9.928;2023-12-07T07:56:56;6.90;;;4.50;;
6467;SDS011;3267;48.794;9.928;2023-12-07T07:59:22;5.47;;;4.27;;
6467;SDS011;3267;48.794;9.928;2023-12-07T08:01:48;4.80;;;3.90;;
6467;SDS011;3267;48.794;9.928;2023-12-07T08:04:15;8.70;;;4.10;;
6467;SDS011;3267;48.794;9.928;2023-12-07T08:06:41;6.27;;;3.97;;
6467;SDS011;3267;48.794;9.928;2023-12-07T08:09:07;7.20;;;3.80;;
6467;SDS011;3267;48.794;9.928;2023-12-07T08:11:34;6.70;;;4.37;;
6467;SDS011;3267;48.794;9.928;2023-12-07T08:14:00;7.93;;;4.00;;
6467;SDS011;3267;48.794;9.928;2023-12-07T08:16:26;9.20;;;4.20;;
6467;SDS011;3267;48.794;9.928;2023-12-07T08:18:53;5.23;;;3.70;;
6467;SDS011;3267;48.794;9.928;2023-12-07T08:21:22;5.23;;;3.63;;
6467;SDS011;3267;48.794;9.928;2023-12-07T08:23:48;4.13;;;3.20;;
6467;SDS011;3267;48.794;9.928;2023-12-07T08:26:14;3.60;;;3.20;;
6467;SDS011;3267;48.794;9.928;2023-12-07T08:28:41;5.13;;;3.70;;
6467;SDS011;3267;48.794;9.928;2023-12-07T08:31:07;5.33;;;3.40;;
6467;SDS011;3267;48.794;9.928;2023-12-07T08:33:33;7.23;;;3.87;;
6467;SDS011;3267;48.794;9.928;2023-12-07T08:35:59;4.47;;;3.30;;
6467;SDS011;3267;48.794;9.928;2023-12-07T08:38:25;3.20;;;2.83;;
6467;SDS011;3267;48.794;9.928;2023-12-07T08:40:52;4.23;;;2.80;;
6467;SDS011;3267;48.794;9.928;2023-12-07T08:43:20;4.87;;;2.70;;
6467;SDS011;3267;48.794;9.928;2023-12-07T08:45:48;4.77;;;2.80;;
6467;SDS011;3267;48.794;9.928;2023-12-07T08:48:15;3.10;;;2.73;;
6467;SDS011;3267;48.794;9.928;2023-12-07T08:50:40;3.20;;;2.90;;
6467;SDS011;3267;48.794;9.928;2023-12-07T08:53:07;3.80;;;3.23;;
6467;SDS011;3267;48.794;9.928;2023-12-07T08:55:33;5.07;;;3.83;;
6467;SDS011;3267;48.794;9.928;2023-12-07T08:57:59;5.73;;;3.57;;
6467;SDS011;3267;48.794;9.928;2023-12-07T09:00:25;4.43;;;3.40;;
6467;SDS011;3267;48.794;9.928;2023-12-07T09:02:51;5.00;;;3.27;;
6467;SDS011;3267;48.794;9.928;2023-12-07T09:05:17;3.47;;;2.60;;
6467;SDS011;3267;48.794;9.928;2023-12-07T09:07:43;4.80;;;3.00;;
6467;SDS011;3267;48.794;9.928;2023-12-07T09:10:09;3.73;;;3.10;;
6467;SDS011;3267;48.794;9.928;2023-12-07T09:12:35;4.00;;;3.03;;
6467;SDS011;3267;48.794;9.928;2023-12-07T09:15:02;4.23;;;3.10;;
6467;SDS011;3267;48.794;9.928;2023-12-07T09:17:28;3.30;;;2.87;;
6467;SDS011;3267;48.794;9.928;2023-12-07T09:19:54;3.23;;;2.93;;
6467;SDS011;3267;48.794;9.928;2023-12-07T09:22:20;4.00;;;3.23;;
6467;SDS011;3267;48.794;9.928;2023-12-07T09:24:46;3.20;;;2.90;;
6467;SDS011;3267;48.794;9.928;2023-12-07T09:27:15;4.37;;;2.93;;
6467;SDS011;3267;48.794;9.928;2023-12-07T09:29:40;4.63;;;3.17;;
6467;SDS011;3267;48.794;9.928;2023-12-07T09:32:07;4.47;;;3.37;;
6467;SDS011;3267;48.794;9.928;2023-12-07T09:34:33;6.60;;;3.33;;
6467;SDS011;3267;48.794;9.928;2023-12-07T09:37:08;4.83;;;3.23;;
6467;SDS011;3267;48.794;9.928;2023-12-07T09:39:35;3.70;;;3.10;;
6467;SDS011;3267;48.794;9.928;2023-12-07T09:42:01;4.23;;;3.17;;
6467;SDS011;3267;48.794;9.928;2023-12-07T09:44:27;4.77;;;3.40;;
6467;SDS011;3267;48.794;9.928;2023-12-07T09:46:54;5.97;;;3.57;;
6467;SDS011;3267;48.794;9.928;2023-12-07T09:49:20;5.47;;;3.70;;
6467;SDS011;3267;48.794;9.928;2023-12-07T09:51:46;4.17;;;3.63;;
6467;SDS011;3267;48.794;9.928;2023-12-07T09:54:13;3.90;;;3.33;;
6467;SDS011;3267;48.794;9.928;2023-12-07T09:56:39;7.83;;;3.73;;
6467;SDS011;3267;48.794;9.928;2023-12-07T09:59:06;7.93;;;4.00;;
6467;SDS011;3267;48.794;9.928;2023-12-07T10:01:32;5.20;;;3.90;;
6467;SDS011;3267;48.794;9.928;2023-12-07T10:04:20;4.63;;;3.90;;
6467;SDS011;3267;48.794;9.928;2023-12-07T10:06:51;5.47;;;3.70;;
6467;SDS011;3267;48.794;9.928;2023-12-07T10:09:19;5.73;;;3.80;;
6467;SDS011;3267;48.794;9.928;2023-12-07T10:11:46;3.63;;;3.30;;
6467;SDS011;3267;48.794;9.928;2023-12-07T10:14:12;5.90;;;3.73;;
6467;SDS011;3267;48.794;9.928;2023-12-07T10:16:38;4.90;;;4.40;;
6467;SDS011;3267;48.794;9.928;2023-12-07T10:19:14;5.63;;;3.87;;
6467;SDS011;3267;48.794;9.928;2023-12-07T10:21:46;5.93;;;4.20;;
6467;SDS011;3267;48.794;9.928;2023-12-07T10:24:12;8.13;;;4.10;;
6467;SDS011;3267;48.794;9.928;2023-12-07T10:26:39;6.03;;;5.43;;
6467;SDS011;3267;48.794;9.928;2023-12-07T10:29:05;9.30;;;5.40;;
6467;SDS011;3267;48.794;9.928;2023-12-07T10:31:32;6.63;;;4.93;;
6467;SDS011;3267;48.794;9.928;2023-12-07T10:33:58;5.97;;;4.97;;
6467;SDS011;3267;48.794;9.928;2023-12-07T10:36:25;6.13;;;5.30;;
6467;SDS011;3267;48.794;9.928;2023-12-07T10:38:51;10.93;;;4.93;;
6467;SDS011;3267;48.794;9.928;2023-12-07T10:41:18;7.50;;;5.30;;
6467;SDS011;3267;48.794;9.928;2023-12-07T10:43:48;8.53;;;5.17;;
6467;SDS011;3267;48.794;9.928;2023-12-07T10:46:16;7.90;;;5.33;;
6467;SDS011;3267;48.794;9.928;2023-12-07T10:48:44;12.10;;;5.93;;
6467;SDS011;3267;48.794;9.928;2023-12-07T10:51:14;6.40;;;4.70;;
6467;SDS011;3267;48.794;9.928;2023-12-07T10:53:46;6.20;;;3.60;;
6467;SDS011;3267;48.794;9.928;2023-12-07T10:56:16;6.93;;;3.83;;
6467;SDS011;3267;48.794;9.928;2023-12-07T10:58:55;6.53;;;4.17;;
6467;SDS011;3267;48.794;9.928;2023-12-07T11:01:22;6.53;;;3.70;;
6467;SDS011;3267;48.794;9.928;2023-12-07T11:03:51;3.93;;;3.40;;
6467;SDS011;3267;48.794;9.928;2023-12-07T11:06:18;4.13;;;2.90;;
6467;SDS011;3267;48.794;9.928;2023-12-07T11:08:46;3.10;;;2.23;;
6467;SDS011;3267;48.794;9.928;2023-12-07T11:13:57;3.80;;;2.37;;
6467;SDS011;3267;48.794;9.928;2023-12-07T11:16:38;1.97;;;1.60;;
6467;SDS011;3267;48.794;9.928;2023-12-07T11:19:25;2.03;;;1.90;;
6467;SDS011;3267;48.794;9.928;2023-12-07T11:21:55;3.23;;;2.03;;
6467;SDS011;3267;48.794;9.928;2023-12-07T11:24:23;3.63;;;2.77;;
6467;SDS011;3267;48.794;9.928;2023-12-07T11:26:49;2.90;;;1.80;;
6467;SDS011;3267;48.794;9.928;2023-12-07T11:29:19;4.73;;;2.90;;
6467;SDS011;3267;48.794;9.928;2023-12-07T11:31:45;3.37;;;2.30;;
6467;SDS011;3267;48.794;9.928;2023-12-07T11:34:12;2.27;;;2.07;;
6467;SDS011;3267;48.794;9.928;2023-12-07T11:36:39;2.73;;;2.47;;
6467;SDS011;3267;48.794;9.928;2023-12-07T11:41:46;2.57;;;2.37;;
6467;SDS011;3267;48.794;9.928;2023-12-07T11:44:15;4.37;;;2.20;;
6467;SDS011;3267;48.794;9.928;2023-12-07T11:46:42;5.40;;;2.60;;
6467;SDS011;3267;48.794;9.928;2023-12-07T11:49:08;2.27;;;2.07;;
6467;SDS011;3267;48.794;9.928;2023-12-07T11:51:36;3.57;;;2.43;;
6467;SDS011;3267;48.794;9.928;2023-12-07T11:54:02;3.30;;;3.00;;
6467;SDS011;3267;48.794;9.928;2023-12-07T11:56:28;3.50;;;2.80;;
6467;SDS011;3267;48.794;9.928;2023-12-07T11:58:54;2.60;;;2.40;;
6467;SDS011;3267;48.794;9.928;2023-12-07T12:01:21;3.70;;;2.67;;
6467;SDS011;3267;48.794;9.928;2023-12-07T12:03:50;3.87;;;2.50;;
6467;SDS011;3267;48.794;9.928;2023-12-07T12:06:15;4.03;;;3.03;;
6467;SDS011;3267;48.794;9.928;2023-12-07T12:08:42;5.70;;;2.93;;
6467;SDS011;3267;48.794;9.928;2023-12-07T12:11:07;7.03;;;2.87;;
6467;SDS011;3267;48.794;9.928;2023-12-07T12:13:36;3.93;;;3.07;;
6467;SDS011;3267;48.794;9.928;2023-12-07T12:16:02;5.20;;;3.10;;
6467;SDS011;3267;48.794;9.928;2023-12-07T12:18:28;3.40;;;3.10;;
6467;SDS011;3267;48.794;9.928;2023-12-07T12:20:54;4.10;;;3.23;;
6467;SDS011;3267;48.794;9.928;2023-12-07T12:23:20;5.10;;;3.50;;
6467;SDS011;3267;48.794;9.928;2023-12-07T12:25:46;3.63;;;3.33;;
6467;SDS011;3267;48.794;9.928;2023-12-07T12:28:15;3.10;;;2.80;;
6467;SDS011;3267;48.794;9.928;2023-12-07T12:30:46;2.57;;;2.40;;
6467;SDS011;3267;48.794;9.928;2023-12-07T12:33:13;3.90;;;2.93;;
6467;SDS011;3267;48.794;9.928;2023-12-07T12:35:39;3.17;;;2.77;;
6467;SDS011;3267;48.794;9.928;2023-12-07T12:38:09;3.47;;;2.00;;
6467;SDS011;3267;48.794;9.928;2023-12-07T12:40:36;3.17;;;2.87;;
6467;SDS011;3267;48.794;9.928;2023-12-07T12:43:05;2.23;;;2.03;;
6467;SDS011;3267;48.794;9.928;2023-12-07T12:45:31;3.40;;;2.60;;
6467;SDS011;3267;48.794;9.928;2023-12-07T12:47:58;3.70;;;2.10;;
6467;SDS011;3267;48.794;9.928;2023-12-07T12:53:06;2.87;;;2.53;;
6467;SDS011;3267;48.794;9.928;2023-12-07T12:55:33;3.67;;;2.60;;
6467;SDS011;3267;48.794;9.928;2023-12-07T12:58:00;2.50;;;2.30;;
6467;SDS011;3267;48.794;9.928;2023-12-07T13:00:26;3.07;;;2.77;;
6467;SDS011;3267;48.794;9.928;2023-12-07T13:02:52;2.42;;;2.22;;
6467;SDS011;3267;48.794;9.928;2023-12-07T13:05:17;3.08;;;2.30;;
6467;SDS011;3267;48.794;9.928;2023-12-07T13:07:43;3.07;;;2.40;;
6467;SDS011;3267;48.794;9.928;2023-12-07T13:10:09;2.90;;;2.60;;
6467;SDS011;3267;48.794;9.928;2023-12-07T13:12:35;2.83;;;2.15;;
6467;SDS011;3267;48.794;9.928;2023-12-07T13:15:01;3.20;;;2.13;;
6467;SDS011;3267;48.794;9.928;2023-12-07T13:17:27;5.13;;;2.30;;
6467;SDS011;3267;48.794;9.928;2023-12-07T13:19:54;2.43;;;2.23;;
6467;SDS011;3267;48.794;9.928;2023-12-07T13:22:19;2.42;;;2.22;;
6467;SDS011;3267;48.794;9.928;2023-12-07T13:24:47;2.03;;;1.93;;
6467;SDS011;3267;48.794;9.928;2023-12-07T13:27:14;2.27;;;1.93;;
6467;SDS011;3267;48.794;9.928;2023-12-07T13:29:40;2.87;;;2.17;;
6467;SDS011;3267;48.794;9.928;2023-12-07T13:32:10;2.08;;;1.83;;
6467;SDS011;3267;48.794;9.928;2023-12-07T13:34:38;2.72;;;2.00;;
6467;SDS011;3267;48.794;9.928;2023-12-07T13:37:04;2.17;;;1.95;;
6467;SDS011;3267;48.794;9.928;2023-12-07T13:39:30;2.73;;;2.00;;
6467;SDS011;3267;48.794;9.928;2023-12-07T13:41:56;4.38;;;1.98;;
6467;SDS011;3267;48.794;9.928;2023-12-07T13:44:21;2.00;;;1.90;;
6467;SDS011;3267;48.794;9.928;2023-12-07T13:46:49;2.30;;;2.10;;
6467;SDS011;3267;48.794;9.928;2023-12-07T13:49:18;1.87;;;1.77;;
6467;SDS011;3267;48.794;9.928;2023-12-07T13:51:43;4.15;;;3.40;;
6467;SDS011;3267;48.794;9.928;2023-12-07T13:54:10;2.55;;;2.35;;
6467;SDS011;3267;48.794;9.928;2023-12-07T13:56:36;2.42;;;1.98;;
6467;SDS011;3267;48.794;9.928;2023-12-07T13:59:02;1.92;;;1.67;;
6467;SDS011;3267;48.794;9.928;2023-12-07T14:01:28;3.42;;;2.75;;
6467;SDS011;3267;48.794;9.928;2023-12-07T14:03:54;1.67;;;1.53;;
6467;SDS011;3267;48.794;9.928;2023-12-07T14:06:21;1.95;;;1.85;;
6467;SDS011;3267;48.794;9.928;2023-12-07T14:08:48;1.90;;;1.80;;
6467;SDS011;3267;48.794;9.928;2023-12-07T14:11:15;4.83;;;3.23;;
6467;SDS011;3267;48.794;9.928;2023-12-07T14:13:41;3.33;;;3.03;;
6467;SDS011;3267;48.794;9.928;2023-12-07T14:16:07;2.40;;;2.20;;
6467;SDS011;3267;48.794;9.928;2023-12-07T14:18:33;2.95;;;2.15;;
6467;SDS011;3267;48.794;9.928;2023-12-07T14:20:59;2.53;;;2.33;;
6467;SDS011;3267;48.794;9.928;2023-12-07T14:23:25;2.88;;;2.30;;
6467;SDS011;3267;48.794;9.928;2023-12-07T14:25:51;2.53;;;2.33;;
6467;SDS011;3267;48.794;9.928;2023-12-07T14:28:17;3.33;;;2.90;;
6467;SDS011;3267;48.794;9.928;2023-12-07T14:30:43;5.90;;;5.37;;
6467;SDS011;3267;48.794;9.928;2023-12-07T14:33:09;4.10;;;3.70;;
6467;SDS011;3267;48.794;9.928;2023-12-07T14:35:36;2.90;;;2.57;;
6467;SDS011;3267;48.794;9.928;2023-12-07T14:38:01;3.23;;;2.60;;
6467;SDS011;3267;48.794;9.928;2023-12-07T14:40:28;3.60;;;2.80;;
6467;SDS011;3267;48.794;9.928;2023-12-07T14:43:02;2.93;;;2.40;;
6467;SDS011;3267;48.794;9.928;2023-12-07T14:45:30;4.13;;;2.80;;
6467;SDS011;3267;48.794;9.928;2023-12-07T14:47:56;2.90;;;2.60;;
6467;SDS011;3267;48.794;9.928;2023-12-07T14:50:23;5.60;;;2.67;;
6467;SDS011;3267;48.794;9.928;2023-12-07T14:52:48;3.00;;;2.80;;
6467;SDS011;3267;48.794;9.928;2023-12-07T14:55:15;3.03;;;2.50;;
6467;SDS011;3267;48.794;9.928;2023-12-07T14:57:41;3.53;;;2.93;;
6467;SDS011;3267;48.794;9.928;2023-12-07T15:00:07;3.83;;;3.37;;
6467;SDS011;3267;48.794;9.928;2023-12-07T15:02:33;5.53;;;3.57;;
6467;SDS011;3267;48.794;9.928;2023-12-07T15:04:59;3.60;;;3.20;;
6467;SDS011;3267;48.794;9.928;2023-12-07T15:07:25;3.07;;;2.77;;
6467;SDS011;3267;48.794;9.928;2023-12-07T15:09:51;7.03;;;2.73;;
6467;SDS011;3267;48.794;9.928;2023-12-07T15:12:17;4.13;;;3.60;;
6467;SDS011;3267;48.794;9.928;2023-12-07T15:14:44;3.38;;;3.08;;
6467;SDS011;3267;48.794;9.928;2023-12-07T15:17:10;4.27;;;3.50;;
6467;SDS011;3267;48.794;9.928;2023-12-07T15:19:37;5.63;;;3.60;;
6467;SDS011;3267;48.794;9.928;2023-12-07T15:22:03;4.70;;;3.37;;
6467;SDS011;3267;48.794;9.928;2023-12-07T15:24:28;4.13;;;3.60;;
6467;SDS011;3267;48.794;9.928;2023-12-07T15:26:55;4.43;;;3.07;;
6467;SDS011;3267;48.794;9.928;2023-12-07T15:29:20;4.23;;;3.37;;
6467;SDS011;3267;48.794;9.928;2023-12-07T15:31:46;3.60;;;3.30;;
6467;SDS011;3267;48.794;9.928;2023-12-07T15:34:12;4.70;;;3.43;;
6467;SDS011;3267;48.794;9.928;2023-12-07T15:36:38;4.40;;;3.67;;
6467;SDS011;3267;48.794;9.928;2023-12-07T15:39:04;4.13;;;3.73;;
6467;SDS011;3267;48.794;9.928;2023-12-07T15:41:32;4.87;;;3.60;;
6467;SDS011;3267;48.794;9.928;2023-12-07T15:43:58;3.40;;;3.10;;
6467;SDS011;3267;48.794;9.928;2023-12-07T15:46:23;5.00;;;3.70;;
6467;SDS011;3267;48.794;9.928;2023-12-07T15:48:52;5.87;;;3.90;;
6467;SDS011;3267;48.794;9.928;2023-12-07T15:51:18;5.07;;;4.30;;
6467;SDS011;3267;48.794;9.928;2023-12-07T15:53:43;5.57;;;4.27;;
6467;SDS011;3267;48.794;9.928;2023-12-07T15:56:09;4.50;;;3.97;;
6467;SDS011;3267;48.794;9.928;2023-12-07T15:58:35;5.57;;;4.00;;
6467;SDS011;3267;48.794;9.928;2023-12-07T16:01:01;4.37;;;3.87;;
6467;SDS011;3267;48.794;9.928;2023-12-07T16:03:27;4.77;;;3.67;;
6467;SDS011;3267;48.794;9.928;2023-12-07T16:05:53;5.43;;;3.73;;
6467;SDS011;3267;48.794;9.928;2023-12-07T16:08:19;4.97;;;4.00;;
6467;SDS011;3267;48.794;9.928;2023-12-07T16:10:46;4.53;;;3.90;;
6467;SDS011;3267;48.794;9.928;2023-12-07T16:13:12;4.43;;;4.03;;
6467;SDS011;3267;48.794;9.928;2023-12-07T16:15:37;4.83;;;4.07;;
6467;SDS011;3267;48.794;9.928;2023-12-07T16:18:03;7.33;;;4.90;;
6467;SDS011;3267;48.794;9.928;2023-12-07T16:20:31;5.80;;;4.07;;
6467;SDS011;3267;48.794;9.928;2023-12-07T16:22:57;6.53;;;4.50;;
6467;SDS011;3267;48.794;9.928;2023-12-07T16:25:23;4.23;;;3.83;;
6467;SDS011;3267;48.794;9.928;2023-12-07T16:27:49;7.47;;;4.50;;
6467;SDS011;3267;48.794;9.928;2023-12-07T16:30:14;3.93;;;3.50;;
6467;SDS011;3267;48.794;9.928;2023-12-07T16:32:42;3.83;;;3.43;;
6467;SDS011;3267;48.794;9.928;2023-12-07T16:35:09;5.07;;;4.20;;
6467;SDS011;3267;48.794;9.928;2023-12-07T16:37:37;5.90;;;5.00;;
6467;SDS011;3267;48.794;9.928;2023-12-07T16:40:03;5.00;;;4.50;;
6467;SDS011;3267;48.794;9.928;2023-12-07T16:42:30;5.00;;;4.30;;
6467;SDS011;3267;48.794;9.928;2023-12-07T16:44:55;5.43;;;4.27;;
6467;SDS011;3267;48.794;9.928;2023-12-07T16:47:21;6.03;;;4.23;;
6467;SDS011;3267;48.794;9.928;2023-12-07T16:49:47;5.47;;;4.57;;
6467;SDS011;3267;48.794;9.928;2023-12-07T16:52:13;6.10;;;4.27;;
6467;SDS011;3267;48.794;9.928;2023-12-07T16:54:39;5.43;;;4.90;;
6467;SDS011;3267;48.794;9.928;2023-12-07T16:57:04;5.27;;;4.60;;
6467;SDS011;3267;48.794;9.928;2023-12-07T16:59:30;6.80;;;4.80;;
6467;SDS011;3267;48.794;9.928;2023-12-07T17:01:56;5.33;;;4.40;;
6467;SDS011;3267;48.794;9.928;2023-12-07T17:04:22;6.10;;;5.10;;
6467;SDS011;3267;48.794;9.928;2023-12-07T17:06:48;5.80;;;4.67;;
6467;SDS011;3267;48.794;9.928;2023-12-07T17:09:14;5.50;;;4.60;;
6467;SDS011;3267;48.794;9.928;2023-12-07T17:11:40;5.97;;;4.63;;
6467;SDS011;3267;48.794;9.928;2023-12-07T17:14:06;5.03;;;3.83;;
6467;SDS011;3267;48.794;9.928;2023-12-07T17:16:32;5.20;;;4.70;;
6467;SDS011;3267;48.794;9.928;2023-12-07T17:18:58;5.30;;;4.80;;
6467;SDS011;3267;48.794;9.928;2023-12-07T17:21:23;5.07;;;4.40;;
6467;SDS011;3267;48.794;9.928;2023-12-07T17:23:51;5.43;;;4.67;;
6467;SDS011;3267;48.794;9.928;2023-12-07T17:26:17;7.83;;;4.90;;
6467;SDS011;3267;48.794;9.928;2023-12-07T17:28:43;6.00;;;5.07;;
6467;SDS011;3267;48.794;9.928;2023-12-07T17:31:09;6.10;;;5.03;;
6467;SDS011;3267;48.794;9.928;2023-12-07T17:33:35;6.63;;;5.27;;
6467;SDS011;3267;48.794;9.928;2023-12-07T17:36:01;6.60;;;4.60;;
6467;SDS011;3267;48.794;9.928;2023-12-07T17:38:27;5.83;;;4.33;;
6467;SDS011;3267;48.794;9.928;2023-12-07T17:40:53;5.13;;;4.63;;
6467;SDS011;3267;48.794;9.928;2023-12-07T17:43:19;6.43;;;5.83;;
6467;SDS011;3267;48.794;9.928;2023-12-07T17:45:45;10.13;;;6.13;;
6467;SDS011;3267;48.794;9.928;2023-12-07T17:48:12;4.93;;;4.43;;
6467;SDS011;3267;48.794;9.928;2023-12-07T17:50:38;6.27;;;4.90;;
6467;SDS011;3267;48.794;9.928;2023-12-07T17:53:07;5.30;;;4.50;;
6467;SDS011;3267;48.794;9.928;2023-12-07T17:55:33;5.57;;;4.73;;
6467;SDS011;3267;48.794;9.928;2023-12-07T17:57:59;5.53;;;4.37;;
6467;SDS011;3267;48.794;9.928;2023-12-07T18:00:24;6.00;;;4.50;;
6467;SDS011;3267;48.794;9.928;2023-12-07T18:02:50;5.73;;;3.83;;
6467;SDS011;3267;48.794;9.928;2023-12-07T18:05:16;6.70;;;5.27;;
6467;SDS011;3267;48.794;9.928;2023-12-07T18:07:45;5.80;;;4.57;;
6467;SDS011;3267;48.794;9.928;2023-12-07T18:10:10;6.30;;;4.87;;
6467;SDS011;3267;48.794;9.928;2023-12-07T18:12:36;7.47;;;6.30;;
6467;SDS011;3267;48.794;9.928;2023-12-07T18:15:02;5.20;;;4.13;;
6467;SDS011;3267;48.794;9.928;2023-12-07T18:17:28;8.67;;;4.63;;
6467;SDS011;3267;48.794;9.928;2023-12-07T18:19:53;6.20;;;5.00;;
6467;SDS011;3267;48.794;9.928;2023-12-07T18:22:19;5.70;;;4.60;;
6467;SDS011;3267;48.794;9.928;2023-12-07T18:24:44;4.43;;;4.03;;
6467;SDS011;3267;48.794;9.928;2023-12-07T18:27:10;1.90;;;1.73;;
6467;SDS011;3267;48.794;9.928;2023-12-07T18:29:36;5.50;;;4.93;;
6467;SDS011;3267;48.794;9.928;2023-12-07T18:32:03;5.07;;;4.53;;
6467;SDS011;3267;48.794;9.928;2023-12-07T18:34:29;2.97;;;2.63;;
6467;SDS011;3267;48.794;9.928;2023-12-07T18:36:54;4.90;;;4.30;;
6467;SDS011;3267;48.794;9.928;2023-12-07T18:39:20;5.00;;;4.50;;
6467;SDS011;3267;48.794;9.928;2023-12-07T18:41:46;5.90;;;4.50;;
6467;SDS011;3267;48.794;9.928;2023-12-07T18:44:12;6.07;;;4.40;;
6467;SDS011;3267;48.794;9.928;2023-12-07T18:46:38;5.73;;;4.63;;
6467;SDS011;3267;48.794;9.928;2023-12-07T18:49:04;6.73;;;4.73;;
6467;SDS011;3267;48.794;9.928;2023-12-07T18:51:30;5.77;;;5.20;;
6467;SDS011;3267;48.794;9.928;2023-12-07T18:53:56;10.00;;;5.47;;
6467;SDS011;3267;48.794;9.928;2023-12-07T18:56:22;4.70;;;4.30;;
6467;SDS011;3267;48.794;9.928;2023-12-07T18:58:47;3.73;;;3.33;;
6467;SDS011;3267;48.794;9.928;2023-12-07T19:01:13;6.43;;;4.40;;
6467;SDS011;3267;48.794;9.928;2023-12-07T19:03:39;6.27;;;4.33;;
6467;SDS011;3267;48.794;9.928;2023-12-07T19:06:08;4.77;;;3.93;;
6467;SDS011;3267;48.794;9.928;2023-12-07T19:08:34;6.97;;;4.40;;
6467;SDS011;3267;48.794;9.928;2023-12-07T19:11:00;6.50;;;4.67;;
6467;SDS011;3267;48.794;9.928;2023-12-07T19:13:26;4.73;;;4.13;;
6467;SDS011;3267;48.794;9.928;2023-12-07T19:15:52;4.60;;;3.90;;
6467;SDS011;3267;48.794;9.928;2023-12-07T19:18:18;4.77;;;4.20;;
6467;SDS011;3267;48.794;9.928;2023-12-07T19:20:45;5.17;;;4.63;;
6467;SDS011;3267;48.794;9.928;2023-12-07T19:23:11;6.30;;;5.17;;
6467;SDS011;3267;48.794;9.928;2023-12-07T19:25:37;5.63;;;4.47;;
6467;SDS011;3267;48.794;9.928;2023-12-07T19:28:03;6.30;;;5.03;;
6467;SDS011;3267;48.794;9.928;2023-12-07T19:30:31;5.47;;;4.87;;
6467;SDS011;3267;48.794;9.928;2023-12-07T19:33:00;4.57;;;3.03;;
6467;SDS011;3267;48.794;9.928;2023-12-07T19:35:28;6.53;;;5.47;;
6467;SDS011;3267;48.794;9.928;2023-12-07T19:37:54;6.90;;;5.17;;
6467;SDS011;3267;48.794;9.928;2023-12-07T19:40:20;6.07;;;5.47;;
6467;SDS011;3267;48.794;9.928;2023-12-07T19:42:46;5.60;;;5.10;;
6467;SDS011;3267;48.794;9.928;2023-12-07T19:45:12;6.30;;;5.03;;
6467;SDS011;3267;48.794;9.928;2023-12-07T19:47:38;5.37;;;4.87;;
6467;SDS011;3267;48.794;9.928;2023-12-07T19:50:03;6.87;;;5.17;;
6467;SDS011;3267;48.794;9.928;2023-12-07T19:52:29;7.13;;;5.17;;
6467;SDS011;3267;48.794;9.928;2023-12-07T19:54:55;5.27;;;4.50;;
6467;SDS011;3267;48.794;9.928;2023-12-07T19:57:21;5.13;;;4.57;;
6467;SDS011;3267;48.794;9.928;2023-12-07T19:59:47;5.87;;;5.07;;
6467;SDS011;3267;48.794;9.928;2023-12-07T20:02:13;9.13;;;5.97;;
6467;SDS011;3267;48.794;9.928;2023-12-07T20:04:39;4.53;;;3.53;;
6467;SDS011;3267;48.794;9.928;2023-12-07T20:07:04;5.67;;;5.10;;
6467;SDS011;3267;48.794;9.928;2023-12-07T20:09:30;7.90;;;6.30;;
6467;SDS011;3267;48.794;9.928;2023-12-07T20:11:56;6.53;;;5.40;;
6467;SDS011;3267;48.794;9.928;2023-12-07T20:14:22;6.20;;;5.03;;
6467;SDS011;3267;48.794;9.928;2023-12-07T20:16:48;9.23;;;5.83;;
6467;SDS011;3267;48.794;9.928;2023-12-07T20:19:14;4.53;;;2.93;;
6467;SDS011;3267;48.794;9.928;2023-12-07T20:21:41;7.93;;;5.30;;